Time;durP1;ratioP1;P1;durP2;ratioP2;P2;SDS_P1;SDS_P2;PMS_P1;PMS_P2;Temp;Humidity;BMP_temperature;BMP_pressure;BME280_temperature;BME280_humidity;BME280_pressure;Samples;Min_cycle;Max_cycle;Signal;HPM_P1;HPM_P2
2022/06/03 04:34:17;;;;;;;;;5.75;4.00;;;;;20.15;38.90;101004.00;4960004;28;45473;-71
2022/06/03 04:37:10;;;;;;;;;3.25;3.25;;;;;20.18;38.48;101010.03;4962057;28;45526;-71
2022/06/03 04:39:50;;;;;;;;;6.00;4.00;;;;;20.19;38.71;101013.63;4961513;28;45377;-71
2022/06/03 04:42:51;;;;;;;;;3.00;3.00;;;;;20.20;38.85;101020.81;4960298;28;48449;-72
2022/06/03 04:45:45;;;;;;;;;4.50;4.50;;;;;20.19;38.77;101017.22;4976124;28;45374;-71
2022/06/03 04:48:42;;;;;;;;;4.75;4.50;;;;;20.21;39.17;101015.25;4981112;28;45386;-71
2022/06/03 04:51:37;;;;;;;;;3.50;2.50;;;;;20.21;38.90;101014.38;4968767;28;45378;-72
2022/06/03 04:54:38;;;;;;;;;4.00;4.00;;;;;20.26;39.01;101026.63;4981088;28;45343;-71
2022/06/03 04:57:41;;;;;;;;;3.00;3.00;;;;;20.25;39.10;101035.75;4916327;28;45355;-70
2022/06/03 05:00:31;;;;;;;;;5.00;3.50;;;;;20.26;39.31;101040.22;4968928;28;45480;-70
2022/06/03 05:03:08;;;;;;;;;5.50;4.50;;;;;20.28;39.12;101037.38;4980882;28;45367;-71
2022/06/03 05:06:04;;;;;;;;;2.00;2.00;;;;;20.28;38.99;101024.63;4980737;28;45335;-71
2022/06/03 05:08:51;;;;;;;;;3.75;3.75;;;;;20.30;39.25;101019.06;4980712;28;45291;-71
2022/06/03 05:11:58;;;;;;;;;6.00;4.50;;;;;20.30;38.98;101021.78;4979867;28;45469;-70
2022/06/03 05:14:57;;;;;;;;;4.50;4.50;;;;;20.29;39.39;101012.75;4961564;28;45444;-70
2022/06/03 05:18:00;;;;;;;;;4.00;4.00;;;;;20.30;39.09;101006.31;4980458;28;46053;-72
2022/06/03 05:20:35;;;;;;;;;3.75;3.75;;;;;20.32;39.69;101014.38;4980623;28;45361;-72
2022/06/03 05:23:09;;;;;;;;;7.25;6.00;;;;;20.32;39.65;101017.97;4980655;28;45515;-71
2022/06/03 05:25:56;;;;;;;;;4.00;4.00;;;;;20.31;39.56;101010.78;4980293;28;45395;-72
2022/06/03 05:28:52;;;;;;;;;4.50;4.50;;;;;20.30;39.36;101013.63;4966524;28;45357;-73
2022/06/03 05:31:59;;;;;;;;;8.50;7.50;;;;;20.30;39.56;101021.78;4980253;28;45411;-72
2022/06/03 05:34:31;;;;;;;;;5.00;5.00;;;;;20.33;39.92;101019.66;4962060;28;45473;-70
2022/06/03 05:37:02;;;;;;;;;2.75;2.75;;;;;20.39;40.24;101010.19;4980322;28;45318;-68
2022/06/03 05:39:43;;;;;;;;;4.25;4.25;;;;;20.44;40.18;101004.34;4959405;28;47315;-70
2022/06/03 05:42:30;;;;;;;;;5.50;4.50;;;;;20.45;39.38;100998.78;4969024;28;45279;-70
2022/06/03 05:45:01;;;;;;;;;4.25;3.50;;;;;20.46;39.92;100999.63;4949043;28;45426;-71
2022/06/03 05:47:48;;;;;;;;;5.25;5.25;;;;;20.46;39.80;100995.06;4976859;28;45387;-71
2022/06/03 05:50:46;;;;;;;;;3.75;3.75;;;;;20.51;39.89;100995.53;4958362;28;46717;-71
2022/06/03 05:53:24;;;;;;;;;5.25;5.25;;;;;20.58;40.09;101002.22;4947611;28;45349;-69
2022/06/03 05:56:06;;;;;;;;;6.00;5.00;;;;;20.66;40.25;101001.56;4960474;28;45335;-68
2022/06/03 05:58:50;;;;;;;;;5.75;4.50;;;;;20.73;39.85;100997.34;4980035;28;45307;-69
2022/06/03 06:01:44;;;;;;;;;6.00;6.00;;;;;20.79;40.26;101004.97;4980117;28;46197;-69
2022/06/03 06:04:25;;;;;;;;;7.50;5.25;;;;;20.84;39.92;101005.44;4962032;28;45495;-69
2022/06/03 06:07:07;;;;;;;;;7.25;5.50;;;;;20.91;40.26;100998.50;4980058;28;45374;-69
2022/06/03 06:09:44;;;;;;;;;5.00;5.00;;;;;20.97;39.88;100997.09;4979961;28;45411;-69
2022/06/03 06:12:47;;;;;;;;;4.00;4.00;;;;;21.00;39.84;101008.63;4959105;28;46623;-69
2022/06/03 06:15:46;;;;;;;;;5.75;5.25;;;;;21.04;39.94;101010.09;4966440;28;45678;-69
2022/06/03 06:18:28;;;;;;;;;5.75;5.75;;;;;21.03;39.65;101013.78;4961297;28;45364;-69
2022/06/03 06:20:53;;;;;;;;;4.75;4.75;;;;;21.05;40.18;101006.34;4943599;28;45492;-68
2022/06/03 06:23:39;;;;;;;;;6.50;6.00;;;;;21.07;39.77;101015.28;4976272;28;45479;-68
2022/06/03 06:26:36;;;;;;;;;8.00;6.50;;;;;21.10;39.90;101004.09;4979477;28;45291;-69
2022/06/03 06:29:49;;;;;;;;;5.00;5.00;;;;;21.13;40.01;100995.66;4959225;28;45449;-69
2022/06/03 06:32:27;;;;;;;;;7.25;6.25;;;;;21.14;39.96;100996.53;4958955;28;45423;-69
2022/06/03 06:35:30;;;;;;;;;5.50;5.50;;;;;21.13;40.32;100997.53;4967450;28;46450;-69
2022/06/03 06:38:35;;;;;;;;;5.50;5.50;;;;;21.13;39.82;101003.84;4960507;28;45674;-68
2022/06/03 06:41:19;;;;;;;;;5.75;5.75;;;;;21.11;40.11;101000.38;4975555;28;45262;-68
2022/06/03 06:44:08;;;;;;;;;7.00;6.00;;;;;21.08;40.31;100988.88;4979220;28;45397;-69
2022/06/03 06:46:44;;;;;;;;;13.75;12.50;;;;;21.14;40.39;100989.22;4961412;28;47029;-68
2022/06/03 06:49:15;;;;;;;;;11.25;7.50;;;;;21.19;39.96;101002.47;4952508;28;45323;-67
2022/06/03 06:52:05;;;;;;;;;8.50;6.75;;;;;21.21;40.66;101000.47;4976233;28;45505;-67
2022/06/03 06:54:53;;;;;;;;;6.50;5.75;;;;;21.28;40.59;100992.63;4975338;28;45533;-67
2022/06/03 06:57:23;;;;;;;;;5.75;5.75;;;;;21.34;40.81;100986.66;4984709;28;45585;-67
2022/06/03 06:59:55;;;;;;;;;5.50;5.50;;;;;21.39;40.54;100987.13;4978222;28;45263;-67
2022/06/03 07:03:03;;;;;;;;;6.50;6.50;;;;;21.42;40.52;100985.00;4978654;28;45422;-67
2022/06/03 07:05:50;;;;;;;;;6.75;5.75;;;;;21.47;40.43;100982.72;4964146;28;45512;-67
2022/06/03 07:08:24;;;;;;;;;5.25;5.25;;;;;21.50;40.05;100992.50;4959390;28;47235;-67
2022/06/03 07:11:05;;;;;;;;;6.00;6.00;;;;;21.53;40.23;100981.31;4977283;28;45236;-68
2022/06/03 07:13:32;;;;;;;;;8.00;6.00;;;;;21.59;40.06;100988.09;4978707;28;45314;-67
2022/06/03 07:16:07;;;;;;;;;6.25;6.25;;;;;21.61;40.25;100994.28;4978666;28;45376;-66
2022/06/03 07:21:51;;;;;;;;;8.50;5.50;;;;;21.68;40.69;100985.44;4973697;28;45269;-67
2022/06/03 07:24:30;;;;;;;;;6.25;5.50;;;;;21.70;40.57;100975.22;4957452;28;45374;-67
2022/06/03 07:27:03;;;;;;;;;7.00;6.25;;;;;21.80;40.51;100973.41;4962316;28;46204;-68
2022/06/03 07:29:42;;;;;;;;;10.50;7.25;;;;;21.84;40.47;100965.81;4974480;28;45359;-67
2022/06/03 07:32:19;;;;;;;;;8.25;6.75;;;;;21.90;40.61;100968.00;4978365;28;45545;-67
2022/06/03 07:34:58;;;;;;;;;6.00;5.75;;;;;21.91;40.10;100969.72;4980023;28;45184;-67
2022/06/03 07:37:47;;;;;;;;;5.50;5.50;;;;;21.98;40.63;100981.00;4981148;28;45421;-66
2022/06/03 07:40:17;;;;;;;;;8.75;8.00;;;;;21.92;40.29;100967.88;4981550;28;45309;-68
2022/06/03 07:42:45;;;;;;;;;7.00;7.00;;;;;22.05;40.29;100990.34;4964098;28;45479;-68
2022/06/03 07:45:30;;;;;;;;;8.50;8.00;;;;;22.06;40.54;100998.41;4981629;28;45721;-67
2022/06/03 07:47:59;;;;;;;;;7.75;6.75;;;;;22.08;40.44;101001.00;4981642;28;45363;-67
2022/06/03 07:50:28;;;;;;;;;8.50;8.00;;;;;22.09;40.50;101005.47;4981486;28;45421;-67
2022/06/03 07:53:16;;;;;;;;;7.75;7.75;;;;;22.12;40.60;101008.78;4960836;28;45391;-68
2022/06/03 07:55:42;;;;;;;;;8.00;5.50;;;;;22.15;40.70;100996.72;4979648;28;45465;-66
2022/06/03 07:58:15;;;;;;;;;9.50;7.75;;;;;22.14;40.90;100995.84;4960860;28;45672;-67
2022/06/03 08:00:43;;;;;;;;;6.75;6.75;;;;;22.20;41.30;101003.47;4980672;28;45460;-67
2022/06/03 08:03:25;;;;;;;;;8.50;7.50;;;;;22.25;41.13;100998.47;4981577;28;45438;-68
2022/06/03 08:06:01;;;;;;;;;8.00;8.00;;;;;22.33;40.97;101002.38;4969770;28;45475;-67
2022/06/03 08:11:16;;;;;;;;;7.00;7.00;;;;;22.42;40.83;100994.22;4980737;28;45497;-66
2022/06/03 08:13:41;;;;;;;;;7.25;7.00;;;;;22.48;40.83;101000.97;4981219;28;45323;-68
2022/06/03 08:16:31;;;;;;;;;10.25;7.75;;;;;22.51;40.57;101004.31;4960494;28;45287;-68
2022/06/03 08:19:01;;;;;;;;;9.75;9.75;;;;;22.59;40.70;100999.00;4970430;28;45944;-66
2022/06/03 08:21:35;;;;;;;;;9.25;9.25;;;;;22.65;40.80;101001.16;4963218;28;46759;-67
2022/06/03 08:24:01;;;;;;;;;8.50;8.50;;;;;22.71;41.00;100991.53;4981112;28;45437;-68
2022/06/03 08:26:28;;;;;;;;;7.75;7.75;;;;;22.76;40.93;100991.13;4980876;28;45275;-69
2022/06/03 08:29:08;;;;;;;;;8.00;8.00;;;;;22.84;40.94;100988.53;4963747;28;45488;-67
2022/06/03 08:31:35;;;;;;;;;7.75;7.00;;;;;22.91;40.93;100990.56;4981109;28;45259;-67
2022/06/03 08:34:04;;;;;;;;;9.50;7.25;;;;;23.02;40.73;100997.75;4980558;28;45401;-67
2022/06/03 08:36:35;;;;;;;;;8.50;6.50;;;;;23.11;40.57;100987.81;4981186;28;45366;-67
2022/06/03 08:39:10;;;;;;;;;11.00;9.00;;;;;23.16;40.82;100977.31;4980464;28;45472;-67
2022/06/03 08:41:52;;;;;;;;;10.00;9.00;;;;;23.22;40.35;100971.28;4980561;28;46104;-65
2022/06/03 08:44:39;;;;;;;;;10.50;9.50;;;;;23.27;40.38;100974.41;4981066;28;45521;-67
2022/06/03 08:47:06;;;;;;;;;9.00;9.00;;;;;23.32;40.17;100977.56;4979773;28;45279;-69
2022/06/03 08:49:51;;;;;;;;;8.25;8.25;;;;;23.36;40.58;100974.41;4981012;28;45335;-68
2022/06/03 08:52:23;;;;;;;;;9.25;9.25;;;;;23.45;40.75;100966.31;4980723;28;46132;-67
2022/06/03 08:54:55;;;;;;;;;11.50;10.50;;;;;23.48;40.30;100964.13;4980912;28;45354;-67
2022/06/03 08:57:37;;;;;;;;;11.00;9.00;;;;;23.52;40.15;100965.59;4981014;28;45384;-67
2022/06/03 09:00:12;;;;;;;;;10.75;10.75;;;;;23.50;39.94;100956.69;4980253;28;45515;-68
2022/06/03 09:02:48;;;;;;;;;12.00;12.00;;;;;23.52;39.96;100965.59;4980476;28;45451;-67
2022/06/03 09:05:41;;;;;;;;;14.25;7.75;;;;;23.56;40.09;100958.81;4980197;28;45381;-68
2022/06/03 09:08:30;;;;;;;;;7.75;7.75;;;;;23.63;40.53;100959.09;4974433;28;45280;-68
2022/06/03 09:11:15;;;;;;;;;9.00;9.00;;;;;23.67;39.97;100961.38;4980445;28;45305;-68
2022/06/03 09:13:56;;;;;;;;;11.75;11.00;;;;;23.67;40.14;100957.78;4959727;28;46286;-67
2022/06/03 09:16:25;;;;;;;;;12.25;11.00;;;;;23.69;40.31;100962.09;4978285;28;45363;-67
2022/06/03 09:19:12;;;;;;;;;10.25;9.50;;;;;23.72;40.29;100959.06;4980771;28;45811;-67
2022/06/03 09:21:43;;;;;;;;;14.75;11.25;;;;;23.73;40.60;100960.78;4980677;28;45263;-68
2022/06/03 09:24:15;;;;;;;;;9.50;9.50;;;;;23.81;40.44;100968.25;4959977;28;47113;-68
2022/06/03 09:26:49;;;;;;;;;11.25;11.25;;;;;23.85;40.50;100966.06;4980324;28;45390;-67
2022/06/03 09:29:16;;;;;;;;;8.25;8.25;;;;;23.94;40.79;100970.66;4944985;28;45373;-68
2022/06/03 09:31:46;;;;;;;;;8.00;8.00;;;;;24.01;40.71;100974.50;4959193;28;45240;-69
2022/06/03 09:34:13;;;;;;;;;9.00;8.25;;;;;24.01;40.71;100971.75;4975349;28;45492;-67
2022/06/03 09:36:39;;;;;;;;;12.75;12.00;;;;;24.01;40.66;100983.56;4978616;28;45381;-67
2022/06/03 09:39:10;;;;;;;;;13.00;11.50;;;;;24.01;40.80;100985.44;4960254;28;45280;-68
2022/06/03 09:41:41;;;;;;;;;15.00;11.50;;;;;24.06;40.56;101013.28;4959530;28;46226;-68
2022/06/03 09:44:10;;;;;;;;;11.50;7.75;;;;;24.11;40.73;101005.44;4977102;28;46398;-67
2022/06/03 09:46:37;;;;;;;;;13.25;10.75;;;;;24.17;41.23;100984.78;4963219;28;45804;-67
2022/06/03 09:49:05;;;;;;;;;14.50;12.25;;;;;24.22;40.59;100999.81;4980100;28;45416;-66
2022/06/03 09:54:27;;;;;;;;;11.50;11.50;;;;;24.33;40.77;101005.06;4979410;28;45416;-67
2022/06/03 09:56:58;;;;;;;;;9.75;9.75;;;;;24.37;40.19;101001.03;4967380;28;45954;-66
2022/06/03 09:59:26;;;;;;;;;11.00;10.00;;;;;24.41;40.81;101016.13;4978497;28;45398;-66
2022/06/03 10:01:52;;;;;;;;;11.75;11.50;;;;;24.44;40.98;101012.22;4978893;28;46113;-66
2022/06/03 10:04:21;;;;;;;;;13.50;12.00;;;;;24.33;41.90;100996.03;4958350;28;48395;-67
2022/06/03 10:06:47;;;;;;;;;13.25;10.00;;;;;24.30;41.70;100999.91;4957808;28;45288;-69
2022/06/03 10:17:48;;;;;;;;;9.50;9.50;;;;;24.42;42.13;100987.72;4979274;28;45461;-67
2022/06/03 10:20:13;;;;;;;;;10.50;8.00;;;;;24.50;42.78;100989.69;4957873;28;45312;-67
2022/06/03 10:22:40;;;;;;;;;10.75;10.75;;;;;24.57;42.09;100979.84;4976750;28;45365;-67
2022/06/03 10:25:07;;;;;;;;;11.00;10.00;;;;;24.58;42.24;100970.63;4979506;28;45347;-68
2022/06/03 10:27:33;;;;;;;;;10.00;10.00;;;;;24.69;42.42;100986.81;4979630;28;45557;-67
2022/06/03 10:29:59;;;;;;;;;12.00;10.75;;;;;24.72;42.60;100980.16;4979446;28;45453;-68
2022/06/03 10:32:26;;;;;;;;;9.25;9.00;;;;;24.81;42.79;100981.97;4977448;28;45307;-71
2022/06/03 10:35:03;;;;;;;;;10.00;10.00;;;;;24.92;42.93;100980.91;4958399;28;46240;-69
2022/06/03 10:37:28;;;;;;;;;11.75;10.50;;;;;25.03;42.15;100981.53;4974042;28;45284;-67
2022/06/03 10:39:56;;;;;;;;;9.75;9.75;;;;;24.93;41.91;100956.06;4979166;28;45402;-67
2022/06/03 10:42:23;;;;;;;;;13.00;12.00;;;;;25.19;41.92;100989.03;4959555;28;45626;-67
2022/06/03 10:44:56;;;;;;;;;13.50;11.50;;;;;25.28;42.73;100985.31;4979294;28;45358;-68
2022/06/03 10:47:38;;;;;;;;;15.25;11.25;;;;;25.37;42.32;100980.75;4979386;28;45252;-69
2022/06/03 10:50:10;;;;;;;;;11.50;11.50;;;;;25.46;43.00;100988.91;4960909;28;45395;-68
2022/06/03 11:01:25;;;;;;;;;10.00;10.00;;;;;25.70;43.25;100982.75;4979238;28;45351;-69
2022/06/03 11:03:53;;;;;;;;;12.50;10.50;;;;;25.78;42.70;100987.41;4978837;28;45350;-68
2022/06/03 11:06:26;;;;;;;;;10.75;10.00;;;;;25.82;42.76;100973.22;4975935;28;45500;-69
2022/06/03 11:09:00;;;;;;;;;10.00;10.00;;;;;25.82;42.91;100992.44;4978113;28;45375;-67
2022/06/03 11:11:45;;;;;;;;;11.00;10.75;;;;;25.83;42.66;101001.53;4958125;28;45441;-69
2022/06/03 11:14:30;;;;;;;;;14.00;10.00;;;;;25.70;42.66;101007.47;4978747;28;45343;-70
2022/06/03 11:17:12;;;;;;;;;11.75;11.75;;;;;25.57;43.66;101018.84;4957727;28;46874;-70
2022/06/03 11:19:52;;;;;;;;;13.00;10.25;;;;;25.39;44.32;101020.78;4955825;28;45420;-68
2022/06/03 11:22:35;;;;;;;;;10.75;10.75;;;;;25.22;44.39;101025.25;4979608;28;45268;-68
2022/06/03 11:25:03;;;;;;;;;12.50;12.50;;;;;25.11;44.61;101030.13;4961082;28;45504;-68
2022/06/03 11:27:37;;;;;;;;;12.00;11.50;;;;;24.93;45.54;101032.00;4958019;28;46471;-69
2022/06/03 11:30:18;;;;;;;;;10.25;10.25;;;;;24.74;45.57;101024.75;4966139;28;45308;-69
2022/06/03 11:32:49;;;;;;;;;12.50;10.25;;;;;24.60;46.27;101017.03;4962097;28;45408;-68
2022/06/03 11:35:29;;;;;;;;;10.75;10.75;;;;;24.40;46.79;101019.91;4978861;28;45390;-67
2022/06/03 11:38:03;;;;;;;;;13.75;12.00;;;;;24.32;47.30;101017.06;4958371;28;47088;-67
2022/06/03 11:40:35;;;;;;;;;11.50;10.00;;;;;24.27;47.24;101024.88;4971628;28;45270;-67
2022/06/03 11:43:07;;;;;;;;;10.00;10.00;;;;;24.24;47.12;101018.84;4958084;28;45487;-67
2022/06/03 11:45:48;;;;;;;;;8.00;7.25;;;;;24.12;48.60;101034.56;4973460;28;45435;-66
2022/06/03 11:48:17;;;;;;;;;9.00;9.00;;;;;23.98;48.80;101024.13;4978590;28;45413;-67
2022/06/03 11:50:43;;;;;;;;;9.25;9.25;;;;;23.89;49.14;101035.97;4978322;28;45295;-67
2022/06/03 11:53:08;;;;;;;;;12.00;12.00;;;;;23.81;49.15;101042.19;4960609;28;45442;-67
2022/06/03 11:55:36;;;;;;;;;10.00;9.00;;;;;23.77;49.02;101040.75;4977629;28;45404;-67
2022/06/03 11:58:11;;;;;;;;;8.00;8.00;;;;;23.79;48.89;101038.72;4948346;28;46373;-64
2022/06/03 12:01:03;;;;;;;;;9.50;9.50;;;;;23.80;49.46;101045.06;4971543;28;45283;-65
2022/06/03 12:03:41;;;;;;;;;11.00;11.00;;;;;23.70;50.06;101036.88;4976336;28;45545;-64
2022/06/03 12:06:16;;;;;;;;;14.50;9.75;;;;;23.60;50.30;101036.91;4965797;28;46181;-63
2022/06/03 12:09:21;;;;;;;;;12.50;9.50;;;;;23.51;51.23;101036.91;4978004;28;45570;-65
2022/06/03 12:14:45;;;;;;;;;11.50;11.50;;;;;23.37;51.90;101038.19;4978188;28;45350;-65
2022/06/03 12:17:11;;;;;;;;;5.25;5.25;;;;;23.24;53.01;101035.75;4977510;28;45413;-65
2022/06/03 12:19:47;;;;;;;;;6.25;6.25;;;;;23.11;53.98;101040.66;4977837;28;46220;-66
2022/06/03 12:22:28;;;;;;;;;5.25;5.25;;;;;22.95;55.25;101046.69;4980671;28;45345;-64
2022/06/03 12:24:54;;;;;;;;;7.25;7.25;;;;;22.84;55.49;101046.81;4981292;28;45383;-65
2022/06/03 12:27:40;;;;;;;;;7.25;6.25;;;;;22.78;57.33;101046.53;4980888;28;45446;-64
2022/06/03 12:30:05;;;;;;;;;8.50;8.50;;;;;22.69;57.51;101048.22;4981335;28;46220;-64
2022/06/03 12:32:33;;;;;;;;;7.00;7.00;;;;;22.62;58.45;101050.66;4980172;28;45438;-64
2022/06/03 12:35:38;;;;;;;;;7.00;6.75;;;;;22.54;58.23;101042.25;4980677;28;45402;-64
2022/06/03 12:38:34;;;;;;;;;10.00;8.75;;;;;22.51;59.00;101048.03;4981174;28;45695;-64
2022/06/03 12:41:04;;;;;;;;;12.00;10.25;;;;;22.53;60.05;101039.69;4946030;28;47095;-64
2022/06/03 12:43:29;;;;;;;;;9.25;7.75;;;;;22.48;59.25;101036.50;4980661;28;45530;-64
2022/06/03 12:46:08;;;;;;;;;8.50;6.75;;;;;22.43;60.04;101036.94;4960253;28;45286;-63
2022/06/03 12:48:51;;;;;;;;;6.00;6.00;;;;;22.42;60.00;101032.47;4955557;28;46383;-64
2022/06/03 12:51:32;;;;;;;;;7.25;7.25;;;;;22.37;60.30;101033.91;4959968;28;47650;-64
2022/06/03 12:54:04;;;;;;;;;6.00;6.00;;;;;22.41;60.67;101025.28;4978046;28;45431;-64
2022/06/03 12:56:48;;;;;;;;;11.00;8.00;;;;;22.41;62.03;101021.66;4966928;28;45674;-65
2022/06/03 12:59:29;;;;;;;;;8.75;8.75;;;;;22.45;61.90;101031.34;4968098;28;45368;-64
2022/06/03 13:01:57;;;;;;;;;8.25;8.00;;;;;22.45;61.38;101025.88;4980546;28;46032;-66
2022/06/03 13:04:27;;;;;;;;;9.00;9.00;;;;;22.49;62.42;101024.56;4980038;28;45486;-65
2022/06/03 13:07:27;;;;;;;;;9.75;9.75;;;;;22.53;62.98;101024.16;4979165;28;45391;-65
2022/06/03 13:09:53;;;;;;;;;9.75;7.75;;;;;22.55;63.01;101015.78;4980412;28;45496;-64
2022/06/03 13:12:36;;;;;;;;;7.00;7.00;;;;;22.57;62.81;101022.00;4960074;28;46991;-65
2022/06/03 13:15:20;;;;;;;;;8.25;8.25;;;;;22.58;62.85;101018.25;4977118;28;45371;-63
2022/06/03 13:18:10;;;;;;;;;10.00;9.00;;;;;22.56;61.33;101018.41;4959875;28;45315;-64
2022/06/03 13:20:49;;;;;;;;;10.50;9.50;;;;;22.58;61.76;101029.19;4947936;28;46039;-64
2022/06/03 13:23:29;;;;;;;;;8.00;8.00;;;;;22.56;62.18;101028.47;4977267;28;45738;-64
2022/06/03 13:26:15;;;;;;;;;21.50;20.50;;;;;22.55;62.67;101024.84;4980253;28;45418;-64
2022/06/03 13:28:43;;;;;;;;;14.00;14.00;;;;;22.55;63.07;101035.78;4980392;28;45406;-66
2022/06/03 13:31:11;;;;;;;;;9.50;9.50;;;;;22.53;63.13;101026.03;4980253;28;45352;-64
2022/06/03 13:34:08;;;;;;;;;8.25;8.25;;;;;22.48;63.25;101028.28;4979425;28;45389;-64
2022/06/03 13:36:39;;;;;;;;;8.75;7.00;;;;;22.48;63.61;101028.28;4968315;28;45524;-63
2022/06/03 13:39:13;;;;;;;;;10.25;9.25;;;;;22.49;61.98;101022.69;4959338;28;45446;-64
2022/06/03 13:44:41;;;;;;;;;10.25;10.25;;;;;22.49;62.26;101019.97;4977938;28;45427;-64
2022/06/03 13:47:19;;;;;;;;;12.50;11.50;;;;;22.46;62.32;101013.91;4977559;28;45549;-64
2022/06/03 13:50:01;;;;;;;;;15.50;11.75;;;;;22.46;63.32;101003.84;4959596;28;45355;-64
2022/06/03 13:52:30;;;;;;;;;7.25;7.25;;;;;22.41;63.99;100995.22;4976521;28;45622;-63
2022/06/03 13:55:01;;;;;;;;;11.50;11.25;;;;;22.42;63.94;100991.47;4979431;28;45429;-64
2022/06/03 13:57:38;;;;;;;;;13.75;10.75;;;;;22.44;63.85;100991.34;4968160;28;45362;-63
2022/06/03 14:00:29;;;;;;;;;8.75;8.75;;;;;22.34;62.67;100965.88;4973810;28;45430;-64
2022/06/03 14:03:27;;;;;;;;;10.50;9.25;;;;;22.48;63.37;100971.78;4955626;28;45509;-62
2022/06/03 14:06:16;;;;;;;;;9.00;9.00;;;;;22.54;63.02;100971.22;4958015;28;45644;-64
2022/06/03 14:08:50;;;;;;;;;7.25;7.25;;;;;22.61;62.65;100979.72;4959283;28;45447;-64
2022/06/03 14:11:31;;;;;;;;;9.25;8.50;;;;;22.66;62.61;100977.41;4954182;28;45406;-62
2022/06/03 14:14:15;;;;;;;;;6.25;6.25;;;;;22.69;62.18;100974.41;4979535;28;45341;-63
2022/06/03 14:17:06;;;;;;;;;6.50;6.50;;;;;22.73;62.07;100972.25;4961763;28;47381;-65
2022/06/03 14:19:55;;;;;;;;;7.00;7.00;;;;;22.88;61.18;100988.09;4958246;28;45711;-63
2022/06/03 14:22:35;;;;;;;;;6.00;6.00;;;;;22.96;62.03;101001.09;4969995;28;45443;-63
2022/06/03 14:25:13;;;;;;;;;5.50;5.50;;;;;22.99;60.61;100995.31;4979343;28;45329;-63
2022/06/03 14:27:48;;;;;;;;;8.75;7.50;;;;;23.05;61.09;100994.75;4978959;28;45393;-62
2022/06/03 14:30:29;;;;;;;;;6.50;6.25;;;;;23.10;60.13;100986.09;4979906;28;45358;-63
2022/06/03 14:32:58;;;;;;;;;6.00;6.00;;;;;23.16;59.67;100985.50;4979462;28;45502;-66
2022/06/03 14:35:38;;;;;;;;;6.75;6.75;;;;;23.16;59.40;100983.63;4979554;28;45452;-67
2022/06/03 14:38:26;;;;;;;;;7.50;7.50;;;;;23.21;58.54;100983.22;4979128;28;45525;-65
2022/06/03 14:40:53;;;;;;;;;4.00;4.00;;;;;23.21;59.10;100984.09;4979050;28;45325;-66
2022/06/03 14:43:24;;;;;;;;;5.50;5.00;;;;;23.21;59.20;100989.56;4978993;28;45323;-67
2022/06/03 14:45:58;;;;;;;;;6.50;6.50;;;;;23.21;58.28;100999.63;4977404;28;45552;-67
2022/06/03 14:48:30;;;;;;;;;8.75;7.75;;;;;23.20;58.32;101001.50;4961526;28;47946;-67
2022/06/03 14:51:06;;;;;;;;;9.25;7.75;;;;;23.22;58.95;100993.16;4978983;28;45471;-65
2022/06/03 14:53:37;;;;;;;;;9.00;9.00;;;;;23.24;59.95;100999.31;4979263;28;45303;-68
2022/06/03 14:56:08;;;;;;;;;11.25;7.50;;;;;23.22;59.42;100974.84;4978414;28;45435;-66
2022/06/03 14:58:45;;;;;;;;;10.75;8.25;;;;;23.20;60.12;100967.81;4978797;28;46033;-67
2022/06/03 15:01:42;;;;;;;;;8.00;8.00;;;;;23.19;59.87;100968.81;4978679;28;45388;-67
2022/06/03 15:04:30;;;;;;;;;0.00;0.00;;;;;23.15;59.90;100972.84;4978798;28;45521;-66
